Time;durP1;ratioP1;P1;durP2;ratioP2;P2;SDS_P1;SDS_P2;PMS_P1;PMS_P2;Temp;Humidity;BMP_temperature;BMP_pressure;BME280_temperature;BME280_humidity;BME280_pressure;Samples;Min_cycle;Max_cycle;Signal;HPM_P1;HPM_P2
2021/01/17 00:00:21;;;;;;;21.37;10.47;;;;;;;-3.19;79.37;98705.72;5075636;28;20024;-63
2021/01/17 00:02:47;;;;;;;18.20;10.70;;;;;;;-3.10;79.22;98712.72;5074650;28;20044;-63
2021/01/17 00:05:21;;;;;;;20.03;10.00;;;;;;;-3.04;78.79;98710.44;5075655;28;20056;-63
2021/01/17 00:07:47;;;;;;;14.60;9.13;;;;;;;-3.07;78.39;98710.31;5074965;28;20095;-63
2021/01/17 00:10:19;;;;;;;15.93;8.93;;;;;;;-3.10;77.68;98698.53;5075963;28;20477;-63
2021/01/17 00:12:50;;;;;;;16.27;8.47;;;;;;;-3.03;77.63;98704.63;5072323;28;20027;-63
2021/01/17 00:15:16;;;;;;;15.20;8.77;;;;;;;-3.05;77.52;98702.03;5074361;28;20024;-63
2021/01/17 00:17:43;;;;;;;13.23;7.03;;;;;;;-3.09;76.22;98694.34;5074396;28;20047;-63
2021/01/17 00:20:09;;;;;;;12.00;6.67;;;;;;;-3.15;76.84;98695.03;5075173;28;20085;-62
2021/01/17 00:22:36;;;;;;;13.70;6.57;;;;;;;-3.16;76.44;98695.81;5075145;28;20021;-63
2021/01/17 00:25:03;;;;;;;15.03;7.50;;;;;;;-3.07;75.54;98703.66;5074372;28;20434;-64
2021/01/17 00:27:28;;;;;;;15.40;6.83;;;;;;;-3.07;75.43;98702.81;5075477;28;20039;-64
2021/01/17 00:29:53;;;;;;;12.37;6.37;;;;;;;-3.06;74.85;98699.50;5074107;28;20349;-63
2021/01/17 00:32:19;;;;;;;11.50;5.67;;;;;;;-3.01;74.65;98695.50;5075355;28;20111;-63
2021/01/17 00:34:45;;;;;;;10.20;6.07;;;;;;;-3.11;74.63;98701.84;5074090;28;20017;-64
2021/01/17 00:37:14;;;;;;;9.30;6.53;;;;;;;-3.00;74.39;98695.53;5074970;28;20042;-64
2021/01/17 00:39:40;;;;;;;10.97;6.87;;;;;;;-3.09;74.01;98691.84;5073268;28;20044;-63
2021/01/17 00:42:13;;;;;;;14.57;7.27;;;;;;;-3.03;74.36;98699.59;5075596;28;20024;-63
2021/01/17 00:44:39;;;;;;;10.90;5.90;;;;;;;-3.05;74.23;98697.03;5073911;28;20047;-64
2021/01/17 00:47:05;;;;;;;12.90;6.27;;;;;;;-3.10;74.49;98701.06;5075075;28;20082;-64
2021/01/17 00:49:31;;;;;;;10.77;6.47;;;;;;;-3.07;74.67;98692.78;5073413;28;20113;-64
2021/01/17 00:51:56;;;;;;;12.67;7.00;;;;;;;-3.11;73.99;98691.81;5075311;28;20021;-62
2021/01/17 00:54:22;;;;;;;13.07;6.33;;;;;;;-3.12;74.76;98686.75;5073447;28;20035;-63
2021/01/17 00:56:47;;;;;;;10.27;5.80;;;;;;;-3.16;75.14;98689.94;5075401;28;20024;-63
2021/01/17 00:59:12;;;;;;;15.10;7.20;;;;;;;-3.13;75.39;98682.50;5074123;28;20024;-63
2021/01/17 01:01:39;;;;;;;15.23;7.27;;;;;;;-3.08;74.94;98693.56;5073149;28;20427;-64
2021/01/17 01:04:06;;;;;;;16.67;7.20;;;;;;;-3.16;75.22;98689.94;5074244;28;20101;-64
2021/01/17 01:06:32;;;;;;;11.67;6.33;;;;;;;-3.18;75.24;98684.84;5057170;28;20029;-64
2021/01/17 01:08:57;;;;;;;15.37;7.13;;;;;;;-3.20;75.70;98685.63;5054719;28;20359;-64
2021/01/17 01:11:23;;;;;;;15.87;7.97;;;;;;;-3.25;76.02;98681.28;5068028;28;20086;-64
2021/01/17 01:13:48;;;;;;;15.63;7.60;;;;;;;-3.27;75.74;98684.56;5074687;28;20047;-64
2021/01/17 01:16:15;;;;;;;11.03;5.97;;;;;;;-3.15;76.02;98679.97;5074389;28;20052;-64
2021/01/17 01:18:42;;;;;;;14.07;7.70;;;;;;;-3.16;75.52;98668.22;5074336;28;20020;-64
2021/01/17 01:21:07;;;;;;;17.23;8.33;;;;;;;-3.05;73.54;98666.09;5073132;28;20089;-64
2021/01/17 01:23:33;;;;;;;17.03;7.53;;;;;;;-2.98;73.09;98670.53;5074250;28;20032;-64
2021/01/17 01:25:59;;;;;;;16.00;6.57;;;;;;;-2.86;72.77;98670.94;5072094;28;20111;-64
2021/01/17 01:28:25;;;;;;;18.97;7.70;;;;;;;-2.84;72.48;98671.84;5074076;28;20457;-64
2021/01/17 01:30:52;;;;;;;17.07;8.23;;;;;;;-2.90;72.74;98664.97;5072984;28;20115;-64
2021/01/17 01:33:17;;;;;;;15.47;7.70;;;;;;;-2.77;71.90;98677.13;5072696;28;20032;-64
2021/01/17 01:35:42;;;;;;;11.67;7.90;;;;;;;-2.69;72.03;98662.34;5071817;28;20017;-64
2021/01/17 01:38:08;;;;;;;17.63;8.77;;;;;;;-2.62;70.59;98660.88;5071915;28;20473;-64
2021/01/17 01:40:34;;;;;;;14.27;6.97;;;;;;;-2.82;72.02;98661.06;5073855;28;20076;-64
2021/01/17 01:42:59;;;;;;;17.40;7.30;;;;;;;-2.71;69.88;98653.03;5072842;28;20032;-64
2021/01/17 01:45:25;;;;;;;14.93;7.23;;;;;;;-2.67;69.49;98653.19;5073541;28;20373;-64
2021/01/17 01:47:50;;;;;;;15.57;7.47;;;;;;;-2.68;69.61;98653.16;5072158;28;20040;-63
2021/01/17 01:50:16;;;;;;;18.87;8.90;;;;;;;-2.59;69.67;98646.78;5072900;28;20039;-63
2021/01/17 01:52:42;;;;;;;14.23;6.87;;;;;;;-2.61;69.84;98650.03;5072857;28;20379;-63
2021/01/17 01:55:08;;;;;;;12.20;6.30;;;;;;;-2.67;70.00;98648.16;5074292;28;20381;-64
2021/01/17 01:57:34;;;;;;;12.87;6.60;;;;;;;-2.67;70.19;98639.81;5072929;28;20024;-64
2021/01/17 01:59:59;;;;;;;12.13;7.43;;;;;;;-2.68;70.40;98646.50;5072989;28;20043;-64
2021/01/17 02:02:25;;;;;;;13.97;7.07;;;;;;;-2.67;69.02;98642.31;5071177;28;20024;-64
2021/01/17 02:04:50;;;;;;;15.30;7.27;;;;;;;-2.69;69.15;98643.91;5072683;28;20025;-64
2021/01/17 02:07:48;;;;;;;14.73;7.83;;;;;;;-2.49;68.67;98646.28;5073085;28;20405;-64
2021/01/17 02:10:16;;;;;;;14.97;7.57;;;;;;;-2.45;67.93;98644.69;5031052;28;20033;-64
2021/01/17 02:13:02;;;;;;;14.73;7.03;;;;;;;-2.42;68.44;98643.13;5031339;28;20109;-64
2021/01/17 02:15:32;;;;;;;13.97;7.57;;;;;;;-2.54;67.92;98642.75;5030880;28;20370;-64
2021/01/17 02:18:02;;;;;;;14.17;7.13;;;;;;;-2.38;67.26;98639.09;5030469;28;20116;-64
2021/01/17 02:20:29;;;;;;;16.50;8.60;;;;;;;-2.47;68.09;98633.78;5030919;28;20120;-64
2021/01/17 02:23:00;;;;;;;10.83;6.40;;;;;;;-2.32;67.38;98636.75;5030919;28;20037;-63
2021/01/17 02:25:32;;;;;;;13.17;6.70;;;;;;;-2.42;67.84;98630.59;5031367;28;20029;-63
2021/01/17 02:28:00;;;;;;;15.47;7.90;;;;;;;-2.45;68.00;98634.66;5031124;28;20037;-64
2021/01/17 02:30:30;;;;;;;12.40;6.03;;;;;;;-2.43;67.80;98628.06;5031381;28;20095;-63
2021/01/17 02:33:00;;;;;;;13.63;8.00;;;;;;;-2.56;69.14;98639.34;5030914;28;20056;-63
2021/01/17 02:35:28;;;;;;;10.63;5.93;;;;;;;-2.51;67.11;98624.44;5032269;28;20038;-63
2021/01/17 02:38:24;;;;;;;14.20;7.23;;;;;;;-2.47;66.84;98617.06;5030428;28;20037;-63
2021/01/17 02:41:20;;;;;;;14.10;7.50;;;;;;;-2.44;67.02;98623.84;5031428;28;20042;-63
2021/01/17 02:43:47;;;;;;;15.07;6.03;;;;;;;-2.67;67.18;98627.28;5031476;28;20034;-63
2021/01/17 02:46:12;;;;;;;13.17;6.70;;;;;;;-2.57;66.52;98621.72;5041508;28;20033;-64
2021/01/17 02:48:39;;;;;;;10.57;6.20;;;;;;;-2.63;67.33;98609.84;5067455;28;20452;-64
2021/01/17 02:51:04;;;;;;;10.47;5.33;;;;;;;-2.60;66.47;98626.66;5072512;28;20033;-63
2021/01/17 02:53:50;;;;;;;10.43;5.47;;;;;;;-2.62;66.57;98634.13;5072225;28;20028;-64
2021/01/17 02:56:17;;;;;;;10.13;5.00;;;;;;;-2.70;65.86;98629.66;5073347;28;20032;-63
2021/01/17 02:58:47;;;;;;;10.20;5.53;;;;;;;-2.65;65.80;98623.16;5072990;28;20036;-63
2021/01/17 03:01:12;;;;;;;8.60;4.83;;;;;;;-2.66;65.21;98617.28;5076658;28;20132;-63
2021/01/17 03:03:42;;;;;;;11.70;5.27;;;;;;;-2.70;65.56;98617.97;5075480;28;20405;-63
2021/01/17 03:06:09;;;;;;;7.27;4.57;;;;;;;-2.64;64.75;98617.34;5076775;28;20130;-63
2021/01/17 03:08:37;;;;;;;10.97;5.47;;;;;;;-2.68;65.69;98613.88;5075012;28;20029;-63
2021/01/17 03:11:03;;;;;;;10.23;4.97;;;;;;;-2.69;65.50;98612.16;5073666;28;20027;-63
2021/01/17 03:13:29;;;;;;;10.23;5.43;;;;;;;-2.72;64.24;98612.06;5075403;28;20110;-64
2021/01/17 03:15:55;;;;;;;7.70;5.17;;;;;;;-2.67;64.11;98605.53;5075761;28;20048;-63
2021/01/17 03:18:20;;;;;;;6.17;3.80;;;;;;;-2.67;63.84;98605.53;5075083;28;20095;-63
2021/01/17 03:20:46;;;;;;;7.63;3.93;;;;;;;-2.68;63.36;98600.47;5076682;28;20031;-63
2021/01/17 03:23:11;;;;;;;9.90;4.93;;;;;;;-2.69;64.32;98594.59;5074469;28;20020;-64
2021/01/17 03:25:37;;;;;;;7.10;4.77;;;;;;;-2.69;63.86;98612.16;5073953;28;20126;-62
2021/01/17 03:28:02;;;;;;;9.20;4.97;;;;;;;-2.66;64.19;98601.34;5076865;28;20024;-62
2021/01/17 03:30:27;;;;;;;10.03;4.37;;;;;;;-2.71;63.53;98605.38;5076159;28;20060;-62
2021/01/17 03:32:53;;;;;;;11.27;5.30;;;;;;;-2.69;64.49;98602.13;5072342;28;20025;-62
2021/01/17 03:35:18;;;;;;;7.83;4.67;;;;;;;-2.67;64.53;98603.00;5070033;28;20128;-62
2021/01/17 03:37:44;;;;;;;12.00;5.17;;;;;;;-2.72;64.22;98597.03;5073726;28;20433;-62
2021/01/17 03:40:10;;;;;;;8.80;4.60;;;;;;;-2.60;63.48;98591.53;5074169;28;20053;-62
2021/01/17 03:42:35;;;;;;;7.07;4.90;;;;;;;-2.68;64.03;98585.41;5074217;28;20469;-62
2021/01/17 03:45:01;;;;;;;8.90;4.70;;;;;;;-2.67;63.56;98577.91;5075246;28;20020;-62
2021/01/17 03:47:26;;;;;;;8.40;4.87;;;;;;;-2.77;64.22;98579.31;5069847;28;20315;-62
2021/01/17 03:49:52;;;;;;;8.33;4.47;;;;;;;-2.78;64.53;98577.59;5070331;28;20028;-62
2021/01/17 03:52:17;;;;;;;9.00;5.07;;;;;;;-2.80;63.89;98583.38;5070185;28;20361;-63
2021/01/17 03:54:43;;;;;;;12.67;5.13;;;;;;;-2.89;64.49;98591.47;5074847;28;20016;-63
2021/01/17 03:57:08;;;;;;;8.80;4.40;;;;;;;-2.79;64.18;98580.03;5074693;28;20028;-63
2021/01/17 03:59:33;;;;;;;5.97;3.63;;;;;;;-2.73;63.56;98576.88;5072814;28;20028;-62
2021/01/17 04:01:59;;;;;;;8.73;4.70;;;;;;;-2.88;63.75;98567.19;5073479;28;20024;-63
2021/01/17 04:04:24;;;;;;;8.77;4.40;;;;;;;-2.86;63.59;98581.50;5074282;28;20039;-63
2021/01/17 04:06:49;;;;;;;8.57;4.37;;;;;;;-2.91;63.61;98580.50;5074772;28;20423;-62
2021/01/17 04:09:16;;;;;;;14.23;4.40;;;;;;;-2.91;63.29;98577.16;5070847;28;20082;-62
2021/01/17 04:11:42;;;;;;;6.47;3.83;;;;;;;-2.88;63.79;98578.09;5072050;28;20349;-63
2021/01/17 04:14:07;;;;;;;6.37;4.20;;;;;;;-3.00;64.21;98582.72;5068844;28;20028;-62
2021/01/17 04:16:32;;;;;;;7.97;4.07;;;;;;;-2.94;63.71;98582.94;5069822;28;20428;-63
2021/01/17 04:18:58;;;;;;;6.53;4.47;;;;;;;-2.91;64.25;98575.50;5070696;28;20105;-63
2021/01/17 04:21:23;;;;;;;9.27;4.67;;;;;;;-2.88;63.84;98570.56;5070748;28;20104;-63
2021/01/17 04:23:49;;;;;;;6.97;3.83;;;;;;;-2.96;64.22;98571.97;5073235;28;20374;-63
2021/01/17 04:26:18;;;;;;;11.00;4.30;;;;;;;-2.78;63.57;98564.19;5072775;28;20107;-63
2021/01/17 04:28:43;;;;;;;7.20;4.83;;;;;;;-2.92;64.04;98573.78;5074545;28;20093;-63
2021/01/17 04:31:09;;;;;;;8.73;4.57;;;;;;;-3.01;63.92;98578.47;5073366;28;20040;-64
2021/01/17 04:33:34;;;;;;;6.40;3.50;;;;;;;-2.96;64.38;98568.59;5074540;28;20058;-64
2021/01/17 04:35:59;;;;;;;8.90;4.60;;;;;;;-2.95;64.44;98565.31;5072516;28;20029;-64
2021/01/17 04:38:25;;;;;;;6.83;3.83;;;;;;;-2.97;63.81;98570.25;5073677;28;20717;-64
2021/01/17 04:40:50;;;;;;;7.37;4.07;;;;;;;-2.96;64.21;98566.97;5072440;28;20103;-64
2021/01/17 04:43:30;;;;;;;8.57;3.33;;;;;;;-2.89;63.96;98568.88;5073378;28;20384;-64
2021/01/17 04:46:00;;;;;;;6.90;3.87;;;;;;;-2.90;64.51;98576.34;5075351;28;20346;-64
2021/01/17 04:48:27;;;;;;;6.87;3.87;;;;;;;-2.92;64.46;98571.28;5074290;28;20024;-64
2021/01/17 04:51:03;;;;;;;8.53;4.10;;;;;;;-3.02;64.59;98578.47;5075261;28;21900;-64
2021/01/17 04:53:33;;;;;;;7.83;4.03;;;;;;;-2.96;64.24;98571.97;5073026;28;20105;-64
2021/01/17 04:56:07;;;;;;;7.37;3.97;;;;;;;-2.86;64.06;98575.66;5075657;28;20037;-64
2021/01/17 04:58:35;;;;;;;7.07;4.17;;;;;;;-2.81;63.70;98572.50;5073593;28;20028;-64
2021/01/17 05:01:02;;;;;;;8.93;4.30;;;;;;;-2.82;64.23;98575.78;5074971;28;20021;-64
2021/01/17 05:03:52;;;;;;;6.80;3.97;;;;;;;-2.85;63.63;98578.22;5073338;28;20352;-64
2021/01/17 05:06:27;;;;;;;7.80;4.10;;;;;;;-2.89;63.79;98576.41;5075349;28;20021;-63
2021/01/17 05:09:03;;;;;;;;;;;;;;;-2.76;63.71;98575.16;5074736;28;20417;-63
2021/01/17 05:11:32;;;;;;;;;;;;;;;-2.85;64.66;98577.34;5075225;28;20277;-63
2021/01/17 05:14:10;;;;;;;11.17;3.93;;;;;;;-2.95;64.81;98572.81;5072683;28;19963;-63
2021/01/17 05:16:44;;;;;;;9.57;3.80;;;;;;;-2.93;64.74;98577.06;5073423;28;20024;-63
2021/01/17 05:19:19;;;;;;;6.87;3.97;;;;;;;-2.91;64.28;98575.50;5073270;28;20054;-63
2021/01/17 05:21:49;;;;;;;12.57;5.33;;;;;;;-2.94;64.76;98572.91;5074847;28;20361;-63
2021/01/17 05:24:17;;;;;;;7.20;4.00;;;;;;;-2.91;64.52;98580.50;5073339;28;20101;-63
2021/01/17 05:26:52;;;;;;;7.37;4.20;;;;;;;-2.91;64.50;98570.47;5073190;28;20433;-63
2021/01/17 05:29:19;;;;;;;6.53;3.80;;;;;;;-2.89;63.79;98563.88;5073105;28;20044;-63
2021/01/17 05:31:48;;;;;;;8.97;4.67;;;;;;;-2.81;64.09;98562.47;5073023;28;20327;-63
2021/01/17 05:34:17;;;;;;;7.90;4.00;;;;;;;-2.87;64.11;98567.25;5073141;28;20024;-63
2021/01/17 05:36:42;;;;;;;7.03;4.17;;;;;;;-2.93;64.54;98569.56;5073011;28;20408;-64
2021/01/17 05:39:08;;;;;;;6.93;3.53;;;;;;;-2.89;64.05;98575.56;5073439;28;20052;-63
2021/01/17 05:41:33;;;;;;;7.07;3.27;;;;;;;-2.96;64.31;98571.97;5073246;28;20512;-63
2021/01/17 05:43:59;;;;;;;10.23;3.77;;;;;;;-2.98;64.33;98572.75;5072318;28;20026;-63
2021/01/17 05:46:24;;;;;;;7.53;3.53;;;;;;;-2.97;63.87;98570.25;5072577;28;20330;-63
2021/01/17 05:49:08;;;;;;;7.70;3.80;;;;;;;-2.87;63.38;98566.41;5072626;28;20044;-63
2021/01/17 05:51:34;;;;;;;7.27;4.40;;;;;;;-2.91;64.09;98567.97;5073266;28;20036;-64
2021/01/17 05:54:06;;;;;;;5.97;3.77;;;;;;;-2.81;63.99;98569.13;5073176;28;20029;-64
2021/01/17 05:56:34;;;;;;;8.27;3.87;;;;;;;-2.80;63.46;98569.16;5073791;28;20341;-64
2021/01/17 05:58:59;;;;;;;8.20;3.80;;;;;;;-2.82;63.53;98565.75;5073785;28;20020;-63
2021/01/17 06:01:26;;;;;;;6.73;3.67;;;;;;;-2.87;63.76;98569.78;5071980;28;20021;-63
2021/01/17 06:03:53;;;;;;;7.27;4.07;;;;;;;-2.89;64.08;98568.88;5073656;28;20085;-63
2021/01/17 06:06:29;;;;;;;7.50;3.90;;;;;;;-2.80;63.79;98568.34;5072963;28;20036;-63
2021/01/17 06:08:56;;;;;;;6.67;3.83;;;;;;;-2.77;63.59;98571.78;5073680;28;20036;-63
2021/01/17 06:11:23;;;;;;;7.93;4.43;;;;;;;-2.85;63.83;98564.81;5072269;28;20025;-63
2021/01/17 06:13:59;;;;;;;7.80;3.17;;;;;;;-2.90;63.99;98567.16;5073187;28;20399;-63
2021/01/17 06:16:39;;;;;;;5.90;4.33;;;;;;;-2.97;63.50;98572.78;5072694;28;20021;-63
2021/01/17 06:19:10;;;;;;;7.77;4.23;;;;;;;-2.91;63.83;98579.66;5073829;28;20073;-64
2021/01/17 06:21:37;;;;;;;8.63;3.67;;;;;;;-2.93;63.91;98579.59;5072430;28;20492;-63
2021/01/17 06:24:07;;;;;;;6.63;3.70;;;;;;;-2.89;63.86;98578.91;5073806;28;20364;-63
2021/01/17 06:26:34;;;;;;;6.73;4.17;;;;;;;-2.84;64.13;98579.03;5072536;28;20023;-63
2021/01/17 06:29:02;;;;;;;8.90;3.97;;;;;;;-2.86;64.10;98586.53;5073469;28;20445;-62
2021/01/17 06:31:29;;;;;;;7.23;4.43;;;;;;;-2.97;64.83;98590.31;5072202;28;20020;-62
2021/01/17 06:34:05;;;;;;;9.93;5.17;;;;;;;-2.96;64.30;98592.03;5074480;28;20063;-62
2021/01/17 06:36:32;;;;;;;13.00;4.57;;;;;;;-3.06;64.73;98590.03;5076564;28;20323;-63
2021/01/17 06:38:58;;;;;;;11.77;4.53;;;;;;;-2.95;64.87;98583.72;5076948;28;20041;-63
2021/01/17 06:41:38;;;;;;;9.33;4.70;;;;;;;-2.91;64.52;98580.50;5071526;28;20013;-63
2021/01/17 06:44:09;;;;;;;7.90;3.83;;;;;;;-2.88;64.45;98590.63;5076893;28;20078;-62
2021/01/17 06:46:38;;;;;;;7.63;4.03;;;;;;;-2.89;64.65;98581.44;5075846;28;20024;-63
2021/01/17 06:49:22;;;;;;;6.93;3.80;;;;;;;-3.00;65.05;98585.22;5077030;27;20092;-64
2021/01/17 06:51:50;;;;;;;5.23;3.40;;;;;;;-2.97;65.34;98585.31;5093739;28;20032;-63
2021/01/17 06:54:38;;;;;;;6.77;3.83;;;;;;;-2.92;64.44;98598.84;5075894;28;20254;-64
2021/01/17 06:57:05;;;;;;;6.30;4.27;;;;;;;-2.92;64.57;98600.50;5082412;28;20111;-62
2021/01/17 06:59:31;;;;;;;7.90;4.23;;;;;;;-2.88;65.18;98595.66;5097479;28;20046;-62
2021/01/17 07:04:48;;;;;;;9.10;3.73;;;;;;;-2.91;63.99;98612.25;5098454;28;20032;-62
2021/01/17 07:07:51;;;;;;;8.50;4.07;;;;;;;-2.96;65.29;98611.25;5096160;28;20484;-61
2021/01/17 07:10:21;;;;;;;6.87;4.77;;;;;;;-2.86;64.65;98623.28;5097028;28;20024;-63
2021/01/17 07:13:03;;;;;;;9.63;4.67;;;;;;;-2.89;64.99;98621.56;5096024;28;20473;-63
2021/01/17 07:15:34;;;;;;;6.67;3.53;;;;;;;-2.85;64.19;98625.88;5095921;28;20345;-62
2021/01/17 07:18:03;;;;;;;9.90;4.40;;;;;;;-2.78;64.61;98627.75;5096001;28;20177;-61
2021/01/17 07:20:30;;;;;;;9.40;4.80;;;;;;;-2.82;64.47;98627.59;5097745;28;20521;-62
2021/01/17 07:23:00;;;;;;;6.23;4.13;;;;;;;-2.71;64.08;98632.97;5095388;28;20031;-61
2021/01/17 07:25:30;;;;;;;8.33;4.50;;;;;;;-2.78;64.46;98637.81;5096171;28;20439;-62
2021/01/17 07:28:09;;;;;;;8.47;3.40;;;;;;;-2.78;64.26;98641.97;5096404;28;20055;-61
2021/01/17 07:30:58;;;;;;;8.67;4.43;;;;;;;-2.71;64.08;98638.84;5097705;28;20162;-62
2021/01/17 07:33:39;;;;;;;8.33;4.43;;;;;;;-2.78;64.34;98641.97;5096284;28;20065;-62
2021/01/17 07:36:10;;;;;;;6.30;3.63;;;;;;;-2.76;64.18;98646.22;5096651;28;20031;-62
2021/01/17 07:38:38;;;;;;;7.40;4.60;;;;;;;-2.78;64.17;98652.84;5095734;28;20048;-62
2021/01/17 07:41:09;;;;;;;6.40;3.77;;;;;;;-2.65;63.62;98640.72;5097615;28;20401;-62
2021/01/17 07:43:39;;;;;;;6.93;4.10;;;;;;;-2.64;63.35;98650.81;5095644;28;20110;-62
2021/01/17 07:46:06;;;;;;;9.23;4.60;;;;;;;-2.70;63.77;98654.75;5095011;28;20103;-63
2021/01/17 07:48:33;;;;;;;8.30;4.10;;;;;;;-2.69;63.67;98657.31;5094892;28;20512;-63
2021/01/17 07:51:00;;;;;;;7.13;4.13;;;;;;;-2.62;63.30;98655.84;5096659;28;20397;-62
2021/01/17 07:53:32;;;;;;;9.40;4.73;;;;;;;-2.63;63.84;98649.97;5095039;28;20345;-62
2021/01/17 07:56:03;;;;;;;8.77;4.40;;;;;;;-2.35;62.43;98647.56;5095328;28;20050;-62
2021/01/17 07:58:33;;;;;;;6.33;4.23;;;;;;;-2.63;63.27;98649.16;5095945;28;20035;-62
2021/01/17 08:01:00;;;;;;;8.33;4.10;;;;;;;-2.52;63.28;98647.84;5094962;28;20032;-63
2021/01/17 08:03:26;;;;;;;9.30;4.93;;;;;;;-2.52;63.07;98647.84;5096481;28;20073;-62
2021/01/17 08:05:56;;;;;;;8.67;4.40;;;;;;;-2.50;63.51;98633.66;5095726;28;20020;-62
2021/01/17 08:08:49;;;;;;;9.63;4.67;;;;;;;-2.28;63.24;98645.25;5077876;28;20059;-62
2021/01/17 08:11:40;;;;;;;7.07;4.03;;;;;;;-2.24;62.33;98644.53;5091129;28;20036;-62
2021/01/17 08:14:26;;;;;;;9.23;4.33;;;;;;;-2.25;62.78;98646.22;5093620;28;20031;-62
2021/01/17 08:17:20;;;;;;;9.47;4.60;;;;;;;-2.24;62.69;98652.06;5094691;28;20030;-62
2021/01/17 08:20:01;;;;;;;12.43;4.20;;;;;;;-2.17;61.91;98654.84;5096285;28;20098;-62
2021/01/17 08:22:28;;;;;;;10.10;4.93;;;;;;;-2.36;62.23;98652.53;5094395;28;20125;-62
2021/01/17 08:24:57;;;;;;;7.67;3.77;;;;;;;-2.41;62.40;98649.88;5095892;28;20054;-63
2021/01/17 08:27:30;;;;;;;10.17;4.97;;;;;;;-2.34;62.81;98658.47;5093292;28;20095;-64
2021/01/17 08:30:07;;;;;;;9.87;3.67;;;;;;;-2.18;61.76;98657.28;5096490;28;20111;-63
2021/01/17 08:32:35;;;;;;;10.47;5.17;;;;;;;-2.20;62.10;98649.69;5092074;28;20043;-63
2021/01/17 08:35:13;;;;;;;10.73;5.10;;;;;;;-2.05;62.39;98654.34;5095520;28;20470;-63
2021/01/17 08:37:39;;;;;;;8.57;4.77;;;;;;;-2.03;61.62;98660.25;5093962;28;20084;-63
2021/01/17 08:40:05;;;;;;;7.30;4.03;;;;;;;-2.24;62.35;98665.47;5089632;28;20083;-63
2021/01/17 08:42:49;;;;;;;7.80;3.77;;;;;;;-2.26;61.90;98666.25;5090604;28;20026;-63
2021/01/17 08:45:20;;;;;;;5.13;3.27;;;;;;;-2.24;61.88;98662.09;5094505;28;20027;-63
2021/01/17 08:48:03;;;;;;;7.00;4.13;;;;;;;-2.21;62.19;98660.56;5094542;28;20047;-62
2021/01/17 08:50:32;;;;;;;12.60;4.70;;;;;;;-2.05;62.00;98665.25;5088201;28;20070;-62
2021/01/17 08:53:09;;;;;;;8.23;4.40;;;;;;;-2.04;62.80;98661.94;5090418;28;20028;-62
2021/01/17 08:55:36;;;;;;;8.37;3.43;;;;;;;-2.15;61.97;98677.47;5089838;28;20036;-62
2021/01/17 08:58:01;;;;;;;7.37;4.23;;;;;;;-2.14;62.94;98664.97;5088022;28;20344;-62
2021/01/17 09:00:52;;;;;;;7.27;4.73;;;;;;;-1.89;62.67;98669.06;5083762;28;20043;-62
2021/01/17 09:03:29;;;;;;;8.00;4.70;;;;;;;-1.77;62.45;98671.94;5087484;28;20350;-62
2021/01/17 09:06:08;;;;;;;8.47;4.13;;;;;;;-1.94;62.22;98684.00;5089830;28;20043;-62
2021/01/17 09:08:34;;;;;;;12.90;4.23;;;;;;;-1.88;61.18;98678.31;5091528;28;20035;-63
2021/01/17 09:11:01;;;;;;;6.43;3.60;;;;;;;-1.87;61.77;98683.38;5092306;28;20019;-63
2021/01/17 09:13:29;;;;;;;14.97;5.40;;;;;;;-1.92;61.16;98692.47;5092483;28;20441;-63
2021/01/17 09:16:03;;;;;;;9.57;4.33;;;;;;;-1.99;62.48;98690.53;5093552;28;20333;-63
2021/01/17 09:18:32;;;;;;;9.13;4.70;;;;;;;-1.75;62.20;98692.97;5092309;28;20372;-63
2021/01/17 09:20:58;;;;;;;7.33;4.30;;;;;;;-1.76;61.67;98697.94;5088321;28;20025;-63
2021/01/17 09:23:25;;;;;;;7.23;3.77;;;;;;;-1.70;61.52;98698.13;5088627;28;20039;-64
2021/01/17 09:25:59;;;;;;;4.93;3.17;;;;;;;-1.67;61.07;98704.09;5084070;28;20400;-63
2021/01/17 09:28:26;;;;;;;9.10;4.47;;;;;;;-1.60;61.40;98690.91;5084675;28;20024;-63
2021/01/17 09:30:56;;;;;;;5.77;3.33;;;;;;;-1.61;60.67;98694.22;5086794;28;20350;-63
2021/01/17 09:33:22;;;;;;;7.53;4.20;;;;;;;-1.72;60.97;98707.28;5091426;28;20023;-63
2021/01/17 09:35:48;;;;;;;7.87;4.53;;;;;;;-1.85;62.20;98709.41;5090120;28;20032;-63
2021/01/17 09:38:16;;;;;;;7.10;3.87;;;;;;;-1.70;61.63;98708.19;5092746;28;20052;-63
2021/01/17 09:40:46;;;;;;;8.07;4.17;;;;;;;-1.57;60.96;98703.53;5092887;28;20023;-63
2021/01/17 09:43:12;;;;;;;6.23;4.43;;;;;;;-1.72;61.14;98705.63;5088566;28;20082;-63
2021/01/17 09:45:38;;;;;;;9.30;4.43;;;;;;;-1.59;61.21;98705.19;5088911;28;20027;-63
2021/01/17 09:48:04;;;;;;;5.17;4.53;;;;;;;-1.69;60.81;98707.34;5084806;28;20028;-66
2021/01/17 09:50:34;;;;;;;7.63;3.60;;;;;;;-1.75;61.43;98714.72;5092901;28;20134;-62
2021/01/17 09:53:08;;;;;;;8.90;3.77;;;;;;;-1.83;61.31;98703.59;5086409;28;20517;-63
2021/01/17 09:55:43;;;;;;;8.40;3.60;;;;;;;-1.51;61.28;98702.88;5091641;28;20024;-63
2021/01/17 09:58:13;;;;;;;6.43;3.70;;;;;;;-1.56;60.40;98706.91;5090602;28;20036;-63
2021/01/17 10:00:41;;;;;;;5.80;3.63;;;;;;;-1.79;61.75;98717.94;5075199;28;20068;-63
2021/01/17 10:03:14;;;;;;;5.47;3.43;;;;;;;-1.84;60.72;98717.81;5093056;28;20030;-63
2021/01/17 10:05:44;;;;;;;6.93;3.57;;;;;;;-1.81;59.87;98701.97;5087747;28;20040;-63
2021/01/17 10:08:12;;;;;;;5.97;3.70;;;;;;;-1.66;60.28;98720.88;5085437;28;20107;-63
2021/01/17 10:10:39;;;;;;;3.73;2.67;;;;;;;-1.61;59.45;98698.41;5085964;28;20031;-63
2021/01/17 10:13:07;;;;;;;6.53;3.30;;;;;;;-1.52;58.78;98702.03;5088625;28;20044;-63
2021/01/17 10:15:32;;;;;;;4.10;2.87;;;;;;;-1.51;58.84;98700.38;5087810;28;20395;-64
2021/01/17 10:17:58;;;;;;;4.93;3.27;;;;;;;-1.65;59.23;98699.94;5091207;28;20028;-63
2021/01/17 10:20:24;;;;;;;8.83;3.73;;;;;;;-1.45;59.59;98696.41;5089474;28;20032;-64
2021/01/17 10:23:00;;;;;;;6.37;3.17;;;;;;;-1.41;58.91;98689.78;5092718;28;20039;-62
2021/01/17 10:25:26;;;;;;;8.30;3.87;;;;;;;-1.26;58.84;98700.28;5092288;28;20060;-63
2021/01/17 10:28:03;;;;;;;13.37;5.10;;;;;;;-1.21;59.25;98698.75;5093424;28;20089;-63
2021/01/17 10:30:32;;;;;;;5.47;3.17;;;;;;;-1.53;58.91;98702.81;5094089;28;20448;-62
2021/01/17 10:33:16;;;;;;;6.07;2.87;;;;;;;-1.44;59.18;98699.72;5093298;28;20120;-62
2021/01/17 10:35:47;;;;;;;5.47;2.93;;;;;;;-1.53;58.98;98699.50;5094150;28;20085;-64
2021/01/17 10:38:13;;;;;;;5.17;3.30;;;;;;;-1.65;59.81;98694.06;5092414;28;20147;-63
2021/01/17 10:40:40;;;;;;;4.93;3.40;;;;;;;-1.70;59.59;98705.69;5094955;28;20036;-63
2021/01/17 10:43:08;;;;;;;8.20;4.40;;;;;;;-1.55;59.75;98701.94;5091563;28;20463;-63
2021/01/17 10:45:36;;;;;;;5.37;3.47;;;;;;;-1.64;60.08;98705.84;5094397;28;20060;-63
2021/01/17 10:48:17;;;;;;;5.67;4.10;;;;;;;-1.37;60.67;98699.13;5091660;28;20023;-63
2021/01/17 10:51:02;;;;;;;9.27;4.20;;;;;;;-1.34;59.82;98695.81;5093596;28;20032;-63
2021/01/17 10:53:39;;;;;;;6.07;3.30;;;;;;;-1.39;59.77;98694.03;5093753;28;20032;-64
2021/01/17 10:56:09;;;;;;;5.03;3.00;;;;;;;-1.33;59.26;98680.81;5094113;28;20035;-63
2021/01/17 10:58:42;;;;;;;5.77;3.40;;;;;;;-1.39;59.42;98678.94;5092927;28;20016;-63
2021/01/17 11:01:08;;;;;;;9.73;2.70;;;;;;;-1.49;60.12;98671.13;5094986;28;20020;-63
2021/01/17 11:03:35;;;;;;;4.73;2.63;;;;;;;-1.60;60.29;98669.94;5093434;28;20028;-63
2021/01/17 11:06:24;;;;;;;5.67;3.50;;;;;;;-1.66;60.25;98672.28;5092799;28;20034;-63
2021/01/17 11:08:54;;;;;;;4.70;3.37;;;;;;;-1.74;60.94;98679.56;5094183;28;20107;-63
2021/01/17 11:11:21;;;;;;;5.30;2.97;;;;;;;-1.63;60.41;98679.91;5093547;28;20032;-63
2021/01/17 11:14:13;;;;;;;3.53;2.60;;;;;;;-1.64;60.56;98683.22;5094523;28;20052;-63
2021/01/17 11:16:41;;;;;;;4.33;3.30;;;;;;;-1.75;59.88;98684.56;5089899;28;20070;-64
2021/01/17 11:19:09;;;;;;;5.60;3.37;;;;;;;-1.66;60.80;98679.81;5092928;28;20035;-64
2021/01/17 11:21:35;;;;;;;4.80;3.53;;;;;;;-1.77;62.11;98683.66;5097319;28;20059;-64
2021/01/17 11:24:01;;;;;;;7.23;3.40;;;;;;;-1.57;60.97;98683.44;5096706;28;20417;-64
2021/01/17 11:26:27;;;;;;;3.37;2.47;;;;;;;-1.84;61.00;98690.16;5097076;28;20031;-64
2021/01/17 11:28:54;;;;;;;4.13;3.40;;;;;;;-1.67;60.60;98676.47;5097907;28;20352;-64
2021/01/17 11:31:22;;;;;;;3.87;2.63;;;;;;;-1.72;61.05;98669.56;5095483;28;20024;-64
2021/01/17 11:33:48;;;;;;;6.40;4.10;;;;;;;-1.60;60.72;98677.47;5097503;28;20028;-64
2021/01/17 11:36:22;;;;;;;5.63;3.13;;;;;;;-1.82;60.62;98663.41;5095911;28;20103;-63
2021/01/17 11:38:58;;;;;;;7.67;3.37;;;;;;;-1.72;60.74;98670.44;5097698;28;20126;-64
2021/01/17 11:41:36;;;;;;;5.27;2.90;;;;;;;-1.76;60.87;98663.63;5095598;28;20035;-64
2021/01/17 11:44:11;;;;;;;4.53;2.80;;;;;;;-2.03;61.09;98685.38;5096081;28;20024;-64
2021/01/17 11:46:37;;;;;;;4.50;3.10;;;;;;;-1.98;61.86;98681.34;5095901;28;20059;-64